createdAt,value
2019-03-05T00:01:12.768Z,97388.16
2019-03-05T00:03:41.224Z,97379.14
2019-03-05T00:06:09.665Z,97365.09
2019-03-05T00:08:38.112Z,97367.09
2019-03-05T00:11:06.536Z,97367.91
2019-03-05T00:13:34.926Z,97371.58
2019-03-05T00:16:03.446Z,97370.77
2019-03-05T00:18:31.821Z,97380.45
2019-03-05T00:21:00.347Z,97386.79
2019-03-05T00:23:48.288Z,97392.14
2019-03-05T00:26:19.317Z,97403.64
2019-03-05T00:29:24.501Z,97396.63
2019-03-05T00:31:52.919Z,97395.78
2019-03-05T00:34:41.102Z,97393.11
2019-03-05T00:37:15.740Z,97389.61
2019-03-05T00:39:47.394Z,97387.91
2019-03-05T00:42:52.409Z,97385.24
2019-03-05T00:45:26.642Z,97382.57
2019-03-05T00:47:58.308Z,97394.41
2019-03-05T00:50:29.930Z,97391.73
2019-03-05T00:53:22.561Z,97395.41
2019-03-05T00:56:09.137Z,97401.75
2019-03-05T00:58:40.820Z,97400.91
2019-03-05T01:01:24.254Z,97401.75
2019-03-05T01:04:12.193Z,97407.09
2019-03-05T01:06:40.586Z,97401.05
2019-03-05T01:09:16.005Z,97409.91
2019-03-05T01:11:44.574Z,97402.91
2019-03-05T01:14:13.738Z,97407.39
2019-03-05T01:16:42.296Z,97408.25
2019-03-05T01:19:10.693Z,97403.88
2019-03-05T01:21:39.113Z,97400.38
2019-03-05T01:24:07.515Z,97406.55
2019-03-05T01:26:35.896Z,97405.72
2019-03-05T01:29:04.396Z,97416.41
2019-03-05T01:31:37.637Z,97409.39
2019-03-05T01:34:10.319Z,97411.06
2019-03-05T01:36:42.769Z,97411.22
2019-03-05T01:39:28.783Z,97414.73
2019-03-05T01:41:57.250Z,97421.05
2019-03-05T01:44:25.632Z,97421.05
2019-03-05T01:46:54.017Z,97418.38
2019-03-05T01:49:22.404Z,97427.39
2019-03-05T01:51:50.790Z,97422.05
2019-03-05T01:54:19.237Z,97438.08
2019-03-05T01:56:47.626Z,97437.22
2019-03-05T01:59:16.032Z,97442.56
2019-03-05T02:01:44.499Z,97452.43
2019-03-05T02:04:12.908Z,97465.08
2019-03-05T02:06:41.298Z,97459.73
2019-03-05T02:09:09.964Z,97465.08
2019-03-05T02:11:38.356Z,97474.09
2019-03-05T02:14:06.763Z,97478.58
2019-03-05T02:16:35.143Z,97485.77
2019-03-05T02:19:35.003Z,97485.77
2019-03-05T02:22:03.558Z,97491.27
2019-03-05T02:24:50.059Z,97502.80
2019-03-05T02:27:36.736Z,97501.95
2019-03-05T02:30:14.478Z,97517.12
2019-03-05T02:33:02.917Z,97518.97
2019-03-05T02:35:52.835Z,97525.28
2019-03-05T02:38:33.791Z,97533.47
2019-03-05T02:41:13.792Z,97543.30
2019-03-05T02:43:48.382Z,97557.50
2019-03-05T02:46:20.105Z,97573.35
2019-03-05T02:48:54.545Z,97562.84
2019-03-05T02:51:41.082Z,97581.69
2019-03-05T02:54:34.051Z,97594.19
2019-03-05T02:57:09.545Z,97587.17
2019-03-05T02:59:38.005Z,97612.88
2019-03-05T03:02:11.599Z,97619.22
2019-03-05T03:04:44.584Z,97633.56
2019-03-05T03:07:12.974Z,97638.05
2019-03-05T03:09:50.333Z,97640.72
2019-03-05T03:12:18.910Z,97658.56
2019-03-05T03:14:47.248Z,97666.58
2019-03-05T03:17:15.639Z,97669.39
2019-03-05T03:19:44.028Z,97670.38
2019-03-05T03:22:12.421Z,97680.24
2019-03-05T03:24:40.808Z,97689.19
2019-03-05T03:27:09.196Z,97686.52
2019-03-05T03:29:37.582Z,97693.70
2019-03-05T03:32:05.972Z,97698.19
2019-03-05T03:34:34.355Z,97707.20
2019-03-05T03:37:02.753Z,97724.05
2019-03-05T03:39:31.129Z,97719.84
2019-03-05T03:41:59.525Z,97724.22
2019-03-05T03:44:27.907Z,97738.53
2019-03-05T03:46:56.363Z,97752.87
2019-03-05T03:49:24.744Z,97750.20
2019-03-05T03:51:53.157Z,97752.02
2019-03-05T03:54:21.544Z,97751.34
2019-03-05T03:56:49.967Z,97761.16
2019-03-05T03:59:18.357Z,97755.82
2019-03-05T04:01:46.789Z,97764.83
2019-03-05T04:04:15.177Z,97765.81
2019-03-05T04:06:43.615Z,97772.12
2019-03-05T04:09:12.004Z,97773.83
2019-03-05T04:11:40.429Z,97775.78
2019-03-05T04:14:08.818Z,97781.13
2019-03-05T04:16:37.234Z,97784.78
2019-03-05T04:19:07.258Z,97785.78
2019-03-05T04:21:35.683Z,97792.08
2019-03-05T04:24:04.079Z,97794.75
2019-03-05T04:26:32.489Z,97794.75
2019-03-05T04:29:00.879Z,97808.09
2019-03-05T04:31:30.426Z,97801.08
2019-03-05T04:33:58.808Z,97795.73
2019-03-05T04:36:27.336Z,97800.39
2019-03-05T04:38:55.725Z,97799.53
2019-03-05T04:41:24.149Z,97796.02
2019-03-05T04:43:52.536Z,97799.53
2019-03-05T04:46:34.207Z,97809.36
2019-03-05T04:49:16.221Z,97808.67
2019-03-05T04:51:48.948Z,97816.55
2019-03-05T04:54:17.345Z,97818.23
2019-03-05T04:56:45.785Z,97827.22
2019-03-05T04:59:14.166Z,97830.89
2019-03-05T05:01:42.573Z,97836.23
2019-03-05T05:04:10.965Z,97843.37
2019-03-05T05:06:39.371Z,97850.53
2019-03-05T05:09:07.825Z,97853.06
2019-03-05T05:11:36.277Z,97845.19
2019-03-05T05:14:04.743Z,97846.91
2019-03-05T05:16:33.141Z,97847.04
2019-03-05T05:19:01.596Z,97843.52
2019-03-05T05:21:29.990Z,97839.03
2019-03-05T05:23:58.409Z,97841.70
2019-03-05T05:26:26.804Z,97844.37
2019-03-05T05:28:55.211Z,97832.84
2019-03-05T05:31:23.593Z,97833.69
2019-03-05T05:33:51.988Z,97841.84
2019-03-05T05:36:20.383Z,97841.84
2019-03-05T05:38:48.885Z,97848.00
2019-03-05T05:41:17.278Z,97843.52
2019-03-05T05:43:45.667Z,97848.99
2019-03-05T05:46:14.060Z,97846.32
2019-03-05T05:48:42.461Z,97855.32
2019-03-05T05:51:10.851Z,97854.47
2019-03-05T05:53:39.243Z,97858.68
2019-03-05T05:56:07.709Z,97858.68
2019-03-05T05:58:36.103Z,97857.00
2019-03-05T06:01:06.136Z,97861.52
2019-03-05T06:03:34.517Z,97867.67
2019-03-05T06:06:02.913Z,97876.67
2019-03-05T06:08:31.314Z,97879.21
2019-03-05T06:10:59.709Z,97889.03
2019-03-05T06:13:28.090Z,97893.55
2019-03-05T06:15:56.480Z,97884.55
2019-03-05T06:18:24.860Z,97884.55
2019-03-05T06:20:53.257Z,97885.38
2019-03-05T06:23:21.682Z,97885.38
2019-03-05T06:25:50.087Z,97896.05
2019-03-05T06:28:18.514Z,97898.59
2019-03-05T06:30:46.901Z,97900.56
2019-03-05T06:33:15.353Z,97906.73
2019-03-05T06:35:43.736Z,97893.38
2019-03-05T06:38:12.181Z,97903.10
2019-03-05T06:40:40.586Z,97901.39
2019-03-05T06:43:09.033Z,97902.11
2019-03-05T06:45:37.423Z,97905.64
2019-03-05T06:48:05.852Z,97901.98
2019-03-05T06:50:34.282Z,97909.00
2019-03-05T06:53:02.709Z,97910.67
2019-03-05T06:55:31.096Z,97914.89
2019-03-05T06:57:59.599Z,97912.94
2019-03-05T07:00:30.959Z,97920.68
2019-03-05T07:02:59.379Z,97912.37
2019-03-05T07:06:04.528Z,97923.63
2019-03-05T07:08:33.191Z,97929.53
2019-03-05T07:11:21.278Z,97934.63
2019-03-05T07:13:51.302Z,97928.30
2019-03-05T07:16:28.562Z,97941.52
2019-03-05T07:18:58.481Z,97945.05
2019-03-05T07:21:46.798Z,97955.73
2019-03-05T07:24:18.449Z,97946.99
2019-03-05T07:26:46.835Z,97960.21
2019-03-05T07:29:17.946Z,97967.95
2019-03-05T07:31:45.446Z,97971.48
2019-03-05T07:34:21.220Z,97976.52
2019-03-05T07:36:49.651Z,97977.24
2019-03-05T07:39:21.244Z,97970.91
2019-03-05T07:41:49.822Z,97977.93
2019-03-05T07:44:18.231Z,97980.47
2019-03-05T07:46:46.689Z,97974.00
2019-03-05T07:49:15.117Z,97973.03
2019-03-05T07:51:43.529Z,97977.39
2019-03-05T07:54:11.939Z,97978.08
2019-03-05T07:56:40.348Z,97979.48
2019-03-05T07:59:08.757Z,97975.55
2019-03-05T08:01:37.216Z,97976.95
2019-03-05T08:04:05.653Z,97966.71
2019-03-05T08:06:34.043Z,97975.41
2019-03-05T08:09:30.288Z,97975.14
2019-03-05T08:12:32.530Z,97978.36
2019-03-05T08:15:10.141Z,97981.89
2019-03-05T08:17:38.531Z,97989.33
2019-03-05T08:20:10.065Z,97991.45
2019-03-05T08:22:38.453Z,97996.21
2019-03-05T08:25:10.147Z,98008.06
2019-03-05T08:27:38.615Z,98002.16
2019-03-05T08:30:15.654Z,98003.25
2019-03-05T08:32:44.224Z,98016.75
2019-03-05T08:35:12.724Z,98001.81
2019-03-05T08:37:41.221Z,97997.58
2019-03-05T08:40:15.822Z,97993.48
2019-03-05T08:42:44.200Z,98001.48
2019-03-05T08:45:14.761Z,98002.59
2019-03-05T08:47:43.135Z,98001.31
2019-03-05T08:50:17.298Z,98005.91
2019-03-05T08:52:45.791Z,97997.31
2019-03-05T08:55:14.220Z,98001.94
2019-03-05T08:57:42.616Z,97996.69
2019-03-05T09:00:14.318Z,97998.90
2019-03-05T09:02:48.551Z,97992.81
2019-03-05T09:05:13.281Z,97996.73
2019-03-05T09:07:41.668Z,97989.94
2019-03-05T09:10:15.851Z,98007.06
2019-03-05T09:12:44.262Z,98007.16
2019-03-05T09:15:15.518Z,98005.56
2019-03-05T09:17:43.910Z,98012.04
2019-03-05T09:20:15.165Z,98009.59
2019-03-05T09:22:43.547Z,98016.18
2019-03-05T09:25:16.401Z,98017.56
2019-03-05T09:27:44.876Z,98006.20
2019-03-05T09:30:19.560Z,98015.47
2019-03-05T09:32:48.018Z,98022.06
2019-03-05T09:35:18.039Z,98018.78
2019-03-05T09:37:46.804Z,98032.25
2019-03-05T09:40:23.582Z,98016.16
2019-03-05T09:42:52.241Z,98013.00
2019-03-05T09:45:23.536Z,98016.59
2019-03-05T09:47:51.950Z,98022.75
2019-03-05T09:50:20.616Z,98010.31
2019-03-05T09:52:54.916Z,98017.70
2019-03-05T09:55:21.437Z,98017.45
2019-03-05T09:58:06.854Z,98023.27
2019-03-05T10:00:26.669Z,98038.45
2019-03-05T10:02:55.606Z,98043.73
2019-03-05T10:05:24.181Z,98059.60
2019-03-05T10:07:52.609Z,98059.52
2019-03-05T10:10:31.049Z,98057.62
2019-03-05T10:13:04.153Z,98064.42
2019-03-05T10:15:30.055Z,98065.02
2019-03-05T10:17:58.445Z,98062.95
2019-03-05T10:20:32.178Z,98058.86
2019-03-05T10:23:00.648Z,98057.48
2019-03-05T10:25:29.173Z,98058.06
2019-03-05T10:27:57.728Z,98059.53
2019-03-05T10:30:30.320Z,98052.94
2019-03-05T10:33:01.186Z,98064.23
2019-03-05T10:35:29.628Z,98064.84
2019-03-05T10:38:01.711Z,98056.80
2019-03-05T10:40:38.736Z,98048.02
2019-03-05T10:43:09.114Z,98051.13
2019-03-05T10:45:37.776Z,98043.23
2019-03-05T10:48:06.337Z,98051.45
2019-03-05T10:50:34.766Z,98042.22
2019-03-05T10:53:03.229Z,98051.83
2019-03-05T10:55:31.624Z,98043.34
2019-03-05T10:58:00.026Z,98048.55
2019-03-05T11:00:32.091Z,98040.81
2019-03-05T11:03:00.485Z,98041.11
2019-03-05T11:05:30.437Z,98043.08
2019-03-05T11:07:58.905Z,98057.77
2019-03-05T11:10:29.117Z,98036.33
2019-03-05T11:12:57.503Z,98047.73
2019-03-05T11:15:31.361Z,98042.13
2019-03-05T11:17:59.821Z,98040.84
2019-03-05T11:20:28.247Z,98039.21
2019-03-05T11:22:56.758Z,98028.80
2019-03-05T11:25:25.158Z,98033.55
2019-03-05T11:27:53.580Z,98040.20
2019-03-05T11:30:35.373Z,98048.45
2019-03-05T11:32:54.692Z,98051.98
2019-03-05T11:35:28.306Z,98044.94
2019-03-05T11:37:56.692Z,98054.33
2019-03-05T11:40:25.096Z,98070.70
2019-03-05T11:42:53.723Z,98066.60
2019-03-05T11:45:28.341Z,98055.78
2019-03-05T11:47:56.863Z,98075.91
2019-03-05T11:50:26.024Z,98065.62
2019-03-05T11:52:54.966Z,98066.66
2019-03-05T11:55:27.517Z,98071.00
2019-03-05T11:57:56.072Z,98071.97
2019-03-05T12:00:49.021Z,98061.58
2019-03-05T12:03:17.614Z,98049.17
2019-03-05T12:05:46.031Z,98061.92
2019-03-05T12:08:14.425Z,98065.05
2019-03-05T12:10:42.851Z,98059.10
2019-03-05T12:13:11.264Z,98055.40
2019-03-05T12:15:42.371Z,98068.75
2019-03-05T12:18:10.769Z,98063.64
2019-03-05T12:20:39.199Z,98061.77
2019-03-05T12:23:10.480Z,98057.86
2019-03-05T12:25:39.837Z,98055.48
2019-03-05T12:28:10.561Z,98059.70
2019-03-05T12:30:38.468Z,98064.55
2019-03-05T12:33:06.866Z,98061.86
2019-03-05T12:35:35.674Z,98059.18
2019-03-05T12:38:04.233Z,98062.02
2019-03-05T12:40:32.634Z,98058.79
2019-03-05T12:43:01.036Z,98061.41
2019-03-05T12:45:29.497Z,98059.68
2019-03-05T12:47:57.889Z,98055.92
2019-03-05T12:50:27.809Z,98058.36
2019-03-05T12:52:56.903Z,98065.13
2019-03-05T12:55:25.471Z,98064.37
2019-03-05T12:57:53.922Z,98058.16
2019-03-05T13:00:30.666Z,98059.56
2019-03-05T13:02:59.086Z,98065.47
2019-03-05T13:05:27.496Z,98072.95
2019-03-05T13:07:56.725Z,98062.09
2019-03-05T13:10:26.884Z,98060.48
2019-03-05T13:12:55.276Z,98062.77
2019-03-05T13:15:37.546Z,98075.41
2019-03-05T13:18:05.934Z,98067.09
2019-03-05T13:20:34.370Z,98068.91
2019-03-05T13:23:08.488Z,98082.13
2019-03-05T13:25:32.970Z,98076.86
2019-03-05T13:28:02.349Z,98075.23
2019-03-05T13:30:32.544Z,98075.59
2019-03-05T13:33:01.190Z,98077.40
2019-03-05T13:35:30.745Z,98066.42
2019-03-05T13:38:09.558Z,98074.69
2019-03-05T13:40:40.278Z,98067.83
2019-03-05T13:43:08.333Z,98078.95
2019-03-05T13:45:36.751Z,98077.23
2019-03-05T13:48:14.725Z,98073.20
2019-03-05T13:51:10.612Z,98080.41
2019-03-05T13:53:42.320Z,98072.53
2019-03-05T13:56:42.313Z,98079.46
2019-03-05T13:59:17.156Z,98084.17
2019-03-05T14:01:45.639Z,98095.42
2019-03-05T14:04:29.290Z,98100.20
2019-03-05T14:07:25.677Z,98100.98
2019-03-05T14:09:54.165Z,98097.27
2019-03-05T14:12:22.646Z,98113.19
2019-03-05T14:14:51.006Z,98110.98
2019-03-05T14:17:21.080Z,98116.68
2019-03-05T14:19:49.666Z,98113.56
2019-03-05T14:22:18.122Z,98125.39
2019-03-05T14:24:46.495Z,98124.86
2019-03-05T14:27:14.934Z,98120.82
2019-03-05T14:29:43.321Z,98136.49
2019-03-05T14:32:11.705Z,98133.97
2019-03-05T14:34:40.298Z,98145.55
2019-03-05T14:37:08.770Z,98147.98
2019-03-05T14:39:37.658Z,98156.66
2019-03-05T14:42:07.317Z,98155.89
2019-03-05T14:44:39.788Z,98164.92
2019-03-05T14:47:06.223Z,98169.46
2019-03-05T14:49:34.628Z,98163.41
2019-03-05T14:52:03.060Z,98171.81
2019-03-05T14:54:31.458Z,98165.33
2019-03-05T14:56:59.873Z,98162.22
2019-03-05T14:59:28.253Z,98178.23
2019-03-05T15:01:56.967Z,98186.00
2019-03-05T15:04:25.343Z,98173.78
2019-03-05T15:06:53.772Z,98177.48
2019-03-05T15:09:22.226Z,98166.62
2019-03-05T15:11:50.629Z,98172.52
2019-03-05T15:14:19.036Z,98167.72
2019-03-05T15:16:47.435Z,98169.92
2019-03-05T15:19:21.198Z,98203.30
2019-03-05T15:21:45.914Z,98231.32
2019-03-05T15:24:14.320Z,98263.69
2019-03-05T15:26:42.672Z,98254.00
2019-03-05T15:29:11.083Z,98226.41
2019-03-05T15:31:39.587Z,98229.12
2019-03-05T15:34:08.035Z,98238.70
2019-03-05T15:36:36.476Z,98228.73
2019-03-05T15:39:05.931Z,98233.69
2019-03-05T15:41:34.314Z,98229.75
2019-03-05T15:44:02.735Z,98228.63
2019-03-05T15:46:31.110Z,98229.05
2019-03-05T15:48:59.613Z,98231.19
2019-03-05T15:51:28.206Z,98223.71
2019-03-05T15:53:56.573Z,98211.59
2019-03-05T15:56:24.974Z,98199.48
2019-03-05T15:58:53.363Z,98198.09
2019-03-05T16:01:22.666Z,98197.67
2019-03-05T16:03:51.402Z,98205.30
2019-03-05T16:06:19.799Z,98203.02
2019-03-05T16:08:48.202Z,98202.73
2019-03-05T16:11:16.601Z,98202.33
2019-03-05T16:13:45.487Z,98204.59
2019-03-05T16:16:13.880Z,98206.83
2019-03-05T16:18:42.289Z,98211.76
2019-03-05T16:21:10.675Z,98220.92
2019-03-05T16:23:39.065Z,98217.66
2019-03-05T16:26:07.602Z,98218.92
2019-03-05T16:28:39.143Z,98222.73
2019-03-05T16:31:11.316Z,98230.20
2019-03-05T16:33:58.560Z,98225.12
2019-03-05T16:36:29.317Z,98238.77
2019-03-05T16:39:00.533Z,98227.51
2019-03-05T16:41:30.628Z,98248.34
2019-03-05T16:44:03.519Z,98248.61
2019-03-05T16:46:42.297Z,98238.05
2019-03-05T16:49:15.092Z,98247.20
2019-03-05T16:51:45.582Z,98252.81
2019-03-05T16:54:21.169Z,98261.83
2019-03-05T16:57:06.298Z,98259.41
2019-03-05T16:59:53.346Z,98257.73
2019-03-05T17:02:32.440Z,98261.50
2019-03-05T17:05:02.473Z,98262.62
2019-03-05T17:07:35.216Z,98266.41
2019-03-05T17:10:05.758Z,98273.58
2019-03-05T17:12:34.252Z,98276.52
2019-03-05T17:15:02.731Z,98273.14
2019-03-05T17:17:31.380Z,98284.66
2019-03-05T17:19:59.778Z,98289.19
2019-03-05T17:22:28.186Z,98295.48
2019-03-05T17:24:56.657Z,98291.13
2019-03-05T17:27:25.060Z,98292.95
2019-03-05T17:29:53.721Z,98293.80
2019-03-05T17:32:22.125Z,98293.11
2019-03-05T17:34:50.556Z,98288.72
2019-03-05T17:37:18.956Z,98288.16
2019-03-05T17:39:47.345Z,98290.10
2019-03-05T17:42:15.954Z,98284.19
2019-03-05T17:44:44.511Z,98276.43
2019-03-05T17:47:12.905Z,98279.39
2019-03-05T17:49:41.358Z,98273.58
2019-03-05T17:52:09.774Z,98268.52
2019-03-05T17:54:38.894Z,98273.27
2019-03-05T17:57:09.009Z,98283.26
2019-03-05T17:59:37.770Z,98281.83
2019-03-05T18:02:06.333Z,98274.93
2019-03-05T18:04:34.732Z,98278.69
2019-03-05T18:07:03.375Z,98285.14
2019-03-05T18:09:31.898Z,98280.09
2019-03-05T18:12:00.329Z,98267.50
2019-03-05T18:14:28.821Z,98287.63
2019-03-05T18:16:57.335Z,98285.08
2019-03-05T18:19:26.015Z,98283.52
2019-03-05T18:21:54.482Z,98285.50
2019-03-05T18:24:22.947Z,98283.81
2019-03-05T18:26:51.445Z,98279.52
2019-03-05T18:29:19.875Z,98277.00
2019-03-05T18:31:48.621Z,98279.93
2019-03-05T18:34:17.055Z,98283.42
2019-03-05T18:36:45.467Z,98273.86
2019-03-05T18:39:14.631Z,98283.71
2019-03-05T18:41:43.264Z,98279.45
2019-03-05T18:44:11.831Z,98281.42
2019-03-05T18:46:40.240Z,98286.76
2019-03-05T18:49:08.638Z,98284.22
2019-03-05T18:51:37.132Z,98287.02
2019-03-05T18:54:05.526Z,98280.97
2019-03-05T18:56:33.971Z,98292.60
2019-03-05T18:59:02.566Z,98290.79
2019-03-05T19:01:31.242Z,98279.91
2019-03-05T19:03:59.693Z,98289.23
2019-03-05T19:06:28.127Z,98289.36
2019-03-05T19:08:56.528Z,98294.82
2019-03-05T19:11:24.920Z,98294.82
2019-03-05T19:13:53.319Z,98294.13
2019-03-05T19:16:22.013Z,98298.59
2019-03-05T19:18:50.589Z,98304.80
2019-03-05T19:21:20.614Z,98307.72
2019-03-05T19:23:49.059Z,98317.53
2019-03-05T19:26:17.462Z,98321.06
2019-03-05T19:28:45.865Z,98318.64
2019-03-05T19:31:14.256Z,98332.97
2019-03-05T19:33:43.797Z,98340.00
2019-03-05T19:36:12.283Z,98324.23
2019-03-05T19:38:40.700Z,98351.78
2019-03-05T19:41:09.113Z,98352.64
2019-03-05T19:43:37.547Z,98355.19
2019-03-05T19:46:05.938Z,98357.70
2019-03-05T19:48:34.359Z,98363.05
2019-03-05T19:51:02.832Z,98366.57
2019-03-05T19:53:33.439Z,98370.80
2019-03-05T19:56:03.891Z,98372.25
2019-03-05T19:58:32.969Z,98373.93
2019-03-05T20:01:08.906Z,98376.36
2019-03-05T20:03:37.379Z,98375.25
2019-03-05T20:06:05.952Z,98377.09
2019-03-05T20:08:39.973Z,98385.10
2019-03-05T20:11:05.859Z,98385.10
2019-03-05T20:13:34.249Z,98383.27
2019-03-05T20:16:03.025Z,98399.41
2019-03-05T20:18:31.453Z,98394.06
2019-03-05T20:20:59.847Z,98398.58
2019-03-05T20:23:28.244Z,98392.25
2019-03-05T20:25:56.632Z,98403.80
2019-03-05T20:28:25.035Z,98410.09
2019-03-05T20:30:53.431Z,98419.08
2019-03-05T20:33:21.908Z,98427.09
2019-03-05T20:35:50.578Z,98425.41
2019-03-05T20:38:20.022Z,98435.09
2019-03-05T20:40:48.709Z,98431.72
2019-03-05T20:43:17.108Z,98435.09
2019-03-05T20:45:57.589Z,98440.44
2019-03-05T20:48:27.058Z,98452.09
2019-03-05T20:50:55.449Z,98456.46
2019-03-05T20:53:23.857Z,98468.13
2019-03-05T20:55:52.353Z,98478.06
2019-03-05T20:58:20.774Z,98485.13
2019-03-05T21:00:49.177Z,98486.07
2019-03-05T21:03:17.591Z,98485.36
2019-03-05T21:05:47.720Z,98488.03
2019-03-05T21:08:16.136Z,98483.67
2019-03-05T21:10:44.521Z,98484.50
2019-03-05T21:13:13.178Z,98493.49
2019-03-05T21:15:41.703Z,98492.63
2019-03-05T21:18:14.659Z,98493.73
2019-03-05T21:20:43.045Z,98494.59
2019-03-05T21:23:11.461Z,98488.39
2019-03-05T21:25:39.862Z,98487.69
2019-03-05T21:28:08.296Z,98494.83
2019-03-05T21:30:36.848Z,98484.27
2019-03-05T21:33:05.283Z,98491.45
2019-03-05T21:35:33.669Z,98495.07
2019-03-05T21:38:02.083Z,98497.89
2019-03-05T21:40:33.844Z,98501.51
2019-03-05T21:43:02.284Z,98513.05
2019-03-05T21:45:45.249Z,98521.17
2019-03-05T21:48:13.687Z,98524.83
2019-03-05T21:50:42.072Z,98524.83
2019-03-05T21:53:10.493Z,98533.92
2019-03-05T21:55:38.875Z,98531.26
2019-03-05T21:58:07.305Z,98539.38
2019-03-05T22:00:40.350Z,98550.06
2019-03-05T22:03:08.768Z,98544.84
2019-03-05T22:05:37.152Z,98547.51
2019-03-05T22:08:05.560Z,98536.09
2019-03-05T22:10:34.337Z,98536.83
2019-03-05T22:13:02.777Z,98540.59
2019-03-05T22:15:35.367Z,98540.72
2019-03-05T22:18:03.763Z,98550.41
2019-03-05T22:20:32.312Z,98556.73
2019-03-05T22:23:00.906Z,98547.03
2019-03-05T22:25:29.456Z,98560.37
2019-03-05T22:27:57.864Z,98554.30
2019-03-05T22:30:37.576Z,98570.30
2019-03-05T22:33:06.272Z,98569.48
2019-03-05T22:35:34.667Z,98558.92
2019-03-05T22:38:03.084Z,98561.59
2019-03-05T22:40:31.466Z,98571.52
2019-03-05T22:42:59.884Z,98581.36
2019-03-05T22:45:30.572Z,98585.84
2019-03-05T22:47:58.960Z,98586.81
2019-03-05T22:50:27.383Z,98586.06
2019-03-05T22:52:55.880Z,98579.04
2019-03-05T22:55:24.277Z,98580.73
2019-03-05T22:57:52.663Z,98588.85
2019-03-05T23:00:25.955Z,98589.72
2019-03-05T23:02:54.412Z,98592.50
2019-03-05T23:05:23.045Z,98588.97
2019-03-05T23:07:51.547Z,98599.78
2019-03-05T23:10:20.329Z,98604.26
2019-03-05T23:12:48.716Z,98601.59
2019-03-05T23:15:17.573Z,98604.38
2019-03-05T23:17:46.034Z,98616.86
2019-03-05T23:20:19.026Z,98617.72
2019-03-05T23:22:47.684Z,98626.70
2019-03-05T23:25:17.516Z,98624.97
2019-03-05T23:27:45.898Z,98631.28
2019-03-05T23:30:20.588Z,98625.95
2019-03-05T23:32:50.361Z,98634.06
2019-03-05T23:35:18.749Z,98640.27
2019-03-05T23:37:48.835Z,98645.72
2019-03-05T23:40:17.304Z,98645.60
2019-03-05T23:42:45.767Z,98647.41
2019-03-05T23:45:15.799Z,98650.19
2019-03-05T23:47:44.189Z,98655.67
2019-03-05T23:50:16.521Z,98656.61
2019-03-05T23:52:45.060Z,98654.89
2019-03-05T23:55:14.003Z,98658.53
2019-03-05T23:57:42.677Z,98656.84
